Time;durP1;ratioP1;P1;durP2;ratioP2;P2;SDS_P1;SDS_P2;PMS_P1;PMS_P2;Temp;Humidity;BMP_temperature;BMP_pressure;BME280_temperature;BME280_humidity;BME280_pressure;Samples;Min_cycle;Max_cycle;Signal;HPM_P1;HPM_P2
2022/08/29 00:01:17;;;;;;;10.52;3.60;;;;;;;17.71;55.17;99270.38;5068875;28;20043;-82
2022/08/29 00:03:43;;;;;;;9.48;3.85;;;;;;;17.67;55.29;99261.25;5051814;28;20106;-82
2022/08/29 00:06:09;;;;;;;8.38;4.32;;;;;;;17.68;55.23;99257.47;5072407;28;20033;-82
2022/08/29 00:08:34;;;;;;;10.45;4.00;;;;;;;17.67;55.25;99263.97;5071711;28;20145;-82
2022/08/29 00:11:00;;;;;;;7.90;3.15;;;;;;;17.66;55.29;99278.56;5053562;28;20476;-82
2022/08/29 00:13:26;;;;;;;8.00;3.30;;;;;;;17.48;55.49;99249.53;5070173;28;20083;-82
2022/08/29 00:15:52;;;;;;;8.82;3.90;;;;;;;17.50;55.28;99252.78;5058088;28;20025;-82
2022/08/29 00:18:19;;;;;;;8.15;4.05;;;;;;;17.39;55.74;99243.13;5068079;28;20033;-82
2022/08/29 00:20:45;;;;;;;13.60;3.97;;;;;;;17.59;55.47;99272.69;5072241;28;20357;-81
2022/08/29 00:23:11;;;;;;;10.43;4.07;;;;;;;17.42;55.79;99256.06;5074658;28;20032;-81
2022/08/29 00:25:37;;;;;;;5.68;3.90;;;;;;;17.21;55.90;99230.34;5070688;28;20483;-81
2022/08/29 00:28:02;;;;;;;10.57;4.95;;;;;;;17.51;55.44;99261.69;5065533;28;20521;-82
2022/08/29 00:30:29;;;;;;;9.13;3.60;;;;;;;17.42;55.72;99268.75;5070093;28;20025;-81
2022/08/29 00:32:54;;;;;;;4.97;3.47;;;;;;;17.27;55.88;99241.88;5066865;28;20126;-80
2022/08/29 00:35:24;;;;;;;5.55;3.47;;;;;;;17.35;55.43;99266.38;5066796;28;20078;-82
2022/08/29 00:37:51;;;;;;;8.75;3.55;;;;;;;17.36;55.66;99257.19;5069653;28;20036;-82
2022/08/29 00:40:24;;;;;;;5.40;3.55;;;;;;;17.33;55.86;99252.34;5071810;28;20029;-82
2022/08/29 00:42:49;;;;;;;12.07;4.00;;;;;;;17.41;55.31;99267.94;5064011;28;20029;-82
2022/08/29 00:45:16;;;;;;;8.25;3.72;;;;;;;17.21;55.78;99251.94;5069891;28;20050;-81
2022/08/29 00:47:53;;;;;;;10.10;3.53;;;;;;;17.29;55.77;99256.72;5062390;28;20033;-81
2022/08/29 00:50:44;;;;;;;5.00;3.13;;;;;;;17.28;55.75;99268.56;5070894;28;20032;-82
2022/08/29 00:53:15;;;;;;;7.85;3.38;;;;;;;17.29;55.99;99264.00;5062697;28;20040;-82
2022/08/29 00:55:44;;;;;;;5.68;3.78;;;;;;;17.25;56.11;99277.25;5059104;28;20028;-82
2022/08/29 00:58:27;;;;;;;7.38;3.60;;;;;;;17.24;56.32;99281.03;5048824;28;20072;-82
2022/08/29 01:00:53;;;;;;;8.85;3.67;;;;;;;17.22;56.16;99288.59;5058091;28;20033;-82
2022/08/29 01:03:19;;;;;;;6.97;3.38;;;;;;;17.11;56.00;99265.47;5067852;28;20046;-82
2022/08/29 01:05:45;;;;;;;8.45;4.22;;;;;;;17.16;55.93;99276.22;5049314;28;20024;-82
2022/08/29 01:08:11;;;;;;;6.07;3.42;;;;;;;17.08;55.74;99258.75;5076817;28;20021;-83
2022/08/29 01:13:26;;;;;;;8.18;3.92;;;;;;;16.98;56.10;99260.69;5071917;28;20054;-83
2022/08/29 01:15:53;;;;;;;8.15;4.18;;;;;;;17.10;56.50;99280.84;5063500;28;20033;-82
2022/08/29 01:18:21;;;;;;;6.38;4.28;;;;;;;16.77;56.48;99240.34;5090773;28;20044;-82
2022/08/29 01:21:33;;;;;;;8.02;3.88;;;;;;;17.07;56.50;99286.81;5071308;28;20025;-82
2022/08/29 01:24:20;;;;;;;8.32;4.60;;;;;;;17.04;56.20;99283.84;5033828;28;20036;-81
2022/08/29 01:26:46;;;;;;;9.18;3.60;;;;;;;16.96;56.32;99281.75;5069697;28;20508;-81
2022/08/29 01:29:13;;;;;;;6.97;3.30;;;;;;;16.98;56.82;99290.38;5065703;28;20029;-82
2022/08/29 01:31:42;;;;;;;8.60;4.57;;;;;;;16.96;56.46;99296.06;5048132;28;20036;-81
2022/08/29 01:34:09;;;;;;;6.68;4.60;;;;;;;16.90;56.65;99291.78;5069199;28;20020;-82
2022/08/29 01:36:46;;;;;;;10.32;3.85;;;;;;;16.82;56.72;99292.34;5069158;28;20039;-82
2022/08/29 01:39:12;;;;;;;9.18;3.60;;;;;;;16.91;56.52;99306.03;5032155;28;20033;-82
2022/08/29 01:41:38;;;;;;;7.55;3.85;;;;;;;16.88;56.32;99303.91;5053000;28;20405;-82
2022/08/29 01:44:12;;;;;;;4.47;3.42;;;;;;;16.74;56.48;99281.34;5055646;28;20464;-82
2022/08/29 01:46:38;;;;;;;12.25;4.20;;;;;;;16.72;56.61;99300.50;5066873;28;20032;-82
2022/08/29 01:49:06;;;;;;;7.30;3.72;;;;;;;16.61;56.69;99300.81;5067419;28;20020;-82
2022/08/29 01:51:32;;;;;;;10.43;4.65;;;;;;;15.75;58.51;99290.22;5066839;28;20021;-83
2022/08/29 01:53:58;;;;;;;7.05;3.58;;;;;;;15.87;58.85;99293.47;5068210;28;20504;-82
2022/08/29 01:56:28;;;;;;;12.98;4.15;;;;;;;16.14;57.08;99283.16;5058727;28;20028;-82
2022/08/29 01:58:55;;;;;;;11.75;4.18;;;;;;;15.02;60.17;99292.34;5067723;28;20111;-82
2022/08/29 02:01:26;;;;;;;10.38;4.15;;;;;;;14.24;62.84;99288.00;5081071;28;20070;-81
2022/08/29 02:03:52;;;;;;;13.25;4.55;;;;;;;13.78;nan;99296.84;5066841;28;20029;-82
2022/08/29 02:06:17;;;;;;;9.55;3.95;;;;;;;14.16;63.13;99291.19;5037739;28;20051;-83
2022/08/29 02:08:43;;;;;;;6.18;3.88;;;;;;;15.97;59.29;99306.06;5061747;28;20036;-82
2022/08/29 02:11:11;;;;;;;11.93;4.22;;;;;;;16.39;57.76;99301.13;5060750;28;20036;-82
2022/08/29 02:13:38;;;;;;;7.28;3.90;;;;;;;16.42;57.55;99287.91;5066930;28;20028;-82
2022/08/29 02:16:03;;;;;;;5.18;3.63;;;;;;;16.41;57.21;99278.22;5051981;28;20398;-82
2022/08/29 02:18:29;;;;;;;7.18;3.75;;;;;;;16.25;57.50;99292.03;5051049;28;20025;-83
2022/08/29 02:20:55;;;;;;;9.35;4.03;;;;;;;15.49;59.79;99281.38;5032684;28;20037;-82
2022/08/29 02:23:20;;;;;;;8.43;4.38;;;;;;;16.31;57.53;99299.81;5048000;28;20047;-82
2022/08/29 02:25:46;;;;;;;5.63;3.55;;;;;;;16.30;57.32;99289.31;5065041;28;20119;-82
2022/08/29 02:28:15;;;;;;;10.70;3.95;;;;;;;16.49;57.20;99301.09;5059240;28;20029;-82
2022/08/29 02:30:43;;;;;;;5.85;3.80;;;;;;;16.31;57.26;99272.88;5060555;28;20395;-82
2022/08/29 02:33:12;;;;;;;8.27;3.75;;;;;;;15.58;58.69;99306.66;5068125;28;20031;-82
2022/08/29 02:35:39;;;;;;;7.18;4.22;;;;;;;14.83;61.00;99304.66;5060331;28;20405;-82
2022/08/29 02:38:05;;;;;;;10.40;3.70;;;;;;;15.87;58.86;99298.03;5065352;28;20115;-81
2022/08/29 02:40:31;;;;;;;7.65;3.92;;;;;;;15.96;57.99;99264.91;5063790;28;20439;-82
2022/08/29 02:42:56;;;;;;;7.82;3.80;;;;;;;16.17;57.81;99292.56;5048946;28;20157;-82
2022/08/29 02:45:22;;;;;;;6.63;3.70;;;;;;;15.28;59.65;99311.19;5049211;28;20047;-82
2022/08/29 02:47:48;;;;;;;10.30;4.10;;;;;;;15.01;59.50;99306.84;5059539;28;20048;-82
2022/08/29 02:50:14;;;;;;;9.57;3.60;;;;;;;15.97;58.31;99298.00;5049186;28;20125;-82
2022/08/29 02:52:41;;;;;;;5.50;3.50;;;;;;;16.19;58.12;99307.38;5049521;28;20036;-83
2022/08/29 02:55:10;;;;;;;10.48;4.07;;;;;;;16.28;57.61;99308.44;5067091;28;20036;-82
2022/08/29 02:57:35;;;;;;;8.10;3.78;;;;;;;16.18;57.36;99310.38;5055140;28;20040;-82
2022/08/29 03:00:02;;;;;;;8.13;3.80;;;;;;;16.09;57.74;99293.97;5059649;28;20616;-82
2022/08/29 03:02:28;;;;;;;8.45;4.30;;;;;;;15.62;58.43;99306.94;5045600;28;20396;-82
2022/08/29 03:04:53;;;;;;;13.43;4.38;;;;;;;14.15;62.75;99299.50;5045408;28;20036;-82
2022/08/29 03:07:18;;;;;;;9.52;4.60;;;;;;;14.30;62.02;99294.25;5064172;28;20024;-82
2022/08/29 03:09:44;;;;;;;6.50;4.10;;;;;;;13.29;64.50;99306.94;5046986;28;20112;-81
2022/08/29 03:12:09;;;;;;;8.27;4.45;;;;;;;13.09;65.88;99312.09;5063140;28;20032;-82
2022/08/29 03:14:34;;;;;;;8.63;3.67;;;;;;;13.48;65.63;99315.38;5033980;28;20032;-81
2022/08/29 03:17:00;;;;;;;9.32;3.92;;;;;;;13.39;64.16;99288.25;5057283;28;20428;-82
2022/08/29 03:19:26;;;;;;;9.77;4.28;;;;;;;13.09;65.82;99308.59;5068800;28;20028;-81
2022/08/29 03:21:51;;;;;;;8.40;3.55;;;;;;;12.50;67.19;99288.91;5067665;28;20024;-82
2022/08/29 03:24:16;;;;;;;7.30;3.92;;;;;;;12.69;65.81;99292.88;5072700;28;20029;-82
2022/08/29 03:26:42;;;;;;;8.68;3.63;;;;;;;14.69;61.63;99279.34;5063224;28;20028;-81
2022/08/29 03:29:07;;;;;;;7.00;3.80;;;;;;;15.44;59.11;99283.28;5034137;28;20149;-82
2022/08/29 03:31:34;;;;;;;6.55;3.30;;;;;;;15.67;58.78;99298.84;5032534;28;20124;-82
2022/08/29 03:33:59;;;;;;;11.75;4.50;;;;;;;15.10;59.34;99303.63;5069942;28;20392;-82
2022/08/29 03:36:25;;;;;;;7.97;4.68;;;;;;;14.91;60.67;99298.78;5045697;28;20029;-81
2022/08/29 03:38:51;;;;;;;8.45;4.57;;;;;;;14.41;61.10;99290.53;5074395;28;20558;-81
2022/08/29 03:41:27;;;;;;;6.50;4.03;;;;;;;13.48;63.50;99312.72;5070077;28;20028;-81
2022/08/29 03:43:57;;;;;;;8.63;3.75;;;;;;;14.37;62.46;99319.00;5075969;28;20055;-81
2022/08/29 03:46:23;;;;;;;7.43;3.90;;;;;;;15.28;59.41;99289.69;5056821;28;20050;-81
2022/08/29 03:48:48;;;;;;;8.40;4.35;;;;;;;15.58;58.63;99312.06;5074268;28;20099;-81
2022/08/29 03:51:15;;;;;;;6.15;3.35;;;;;;;15.61;58.02;99302.63;5069536;28;20491;-81
2022/08/29 03:53:41;;;;;;;7.57;4.05;;;;;;;15.75;58.03;99323.34;5069349;28;20036;-82
2022/08/29 03:56:08;;;;;;;5.53;3.92;;;;;;;15.72;57.73;99312.31;5066937;28;20126;-82
2022/08/29 03:58:34;;;;;;;8.38;3.97;;;;;;;15.64;57.47;99323.59;5070358;28;20078;-82
2022/08/29 04:00:59;;;;;;;11.40;4.30;;;;;;;13.91;61.45;99306.34;5067582;28;20438;-81
2022/08/29 04:03:25;;;;;;;4.85;3.35;;;;;;;15.15;58.85;99300.97;5067174;28;20025;-81
2022/08/29 04:05:51;;;;;;;6.80;3.80;;;;;;;15.55;58.32;99301.03;5044688;28;20074;-81
2022/08/29 04:08:18;;;;;;;10.18;3.95;;;;;;;15.19;58.62;99294.78;5048579;28;20102;-81
2022/08/29 04:10:43;;;;;;;6.57;3.80;;;;;;;13.86;62.25;99293.69;5074168;28;20027;-81
2022/08/29 04:13:09;;;;;;;8.45;4.03;;;;;;;14.18;61.32;99323.13;5062089;28;20116;-81
2022/08/29 04:15:36;;;;;;;11.63;4.53;;;;;;;14.33;61.04;99323.25;5059892;28;20051;-81
2022/08/29 04:18:04;;;;;;;9.27;4.53;;;;;;;13.29;63.35;99323.00;5059515;28;20134;-80
2022/08/29 04:20:33;;;;;;;10.48;4.82;;;;;;;12.74;65.63;99317.03;5047503;28;20115;-80
2022/08/29 04:22:59;;;;;;;6.75;4.57;;;;;;;13.18;63.69;99312.44;5058642;28;20051;-80
2022/08/29 04:25:27;;;;;;;8.90;4.00;;;;;;;14.47;61.17;99307.47;5061248;28;20025;-80
2022/08/29 04:27:54;;;;;;;6.30;3.78;;;;;;;12.99;64.56;99319.19;5060530;28;20025;-81
2022/08/29 04:30:22;;;;;;;4.22;3.35;;;;;;;14.19;62.54;99322.06;5049930;28;20427;-80
2022/08/29 04:32:48;;;;;;;5.88;3.55;;;;;;;15.14;59.48;99304.72;5057804;28;20445;-80
2022/08/29 04:35:15;;;;;;;6.55;3.50;;;;;;;15.36;59.07;99316.03;5061400;28;20136;-81
2022/08/29 04:37:42;;;;;;;9.60;3.97;;;;;;;15.33;58.54;99309.31;5067537;28;20111;-80
2022/08/29 04:40:12;;;;;;;12.40;4.57;;;;;;;14.93;58.94;99304.69;5065333;28;20153;-80
2022/08/29 04:42:38;;;;;;;7.93;3.85;;;;;;;13.91;62.65;99300.97;5075596;28;20039;-80
2022/08/29 04:45:06;;;;;;;7.70;4.40;;;;;;;15.01;59.49;99306.84;5067411;28;20057;-80
2022/08/29 04:47:34;;;;;;;9.13;3.40;;;;;;;15.40;58.92;99327.88;5073670;28;20036;-81
2022/08/29 04:49:59;;;;;;;10.95;4.53;;;;;;;15.22;58.70;99329.22;5073684;28;20123;-82
2022/08/29 04:52:25;;;;;;;6.72;4.03;;;;;;;15.46;58.90;99324.97;5070743;28;20265;-80
2022/08/29 04:54:51;;;;;;;6.80;3.80;;;;;;;15.21;58.69;99321.41;5070825;28;20097;-80
2022/08/29 04:57:16;;;;;;;13.93;4.93;;;;;;;13.32;65.37;99341.25;5074272;28;20567;-80
2022/08/29 04:59:42;;;;;;;8.30;4.25;;;;;;;13.79;63.29;99336.03;5071369;28;20051;-80
2022/08/29 05:02:07;;;;;;;6.93;3.78;;;;;;;14.68;61.91;99336.84;5058830;28;20056;-81
2022/08/29 05:04:33;;;;;;;7.32;4.70;;;;;;;13.58;65.37;99352.22;5064610;28;20032;-81
2022/08/29 05:06:59;;;;;;;6.97;4.10;;;;;;;14.22;62.75;99329.59;5076086;28;20028;-81
2022/08/29 05:09:24;;;;;;;7.00;4.00;;;;;;;14.78;61.82;99336.91;5053198;28;20519;-81
2022/08/29 05:11:53;;;;;;;8.85;4.43;;;;;;;15.07;61.05;99341.81;5067947;28;20414;-80
2022/08/29 05:14:18;;;;;;;11.13;4.75;;;;;;;12.98;68.17;99320.25;5082391;28;20032;-80
2022/08/29 05:16:45;;;;;;;10.52;4.68;;;;;;;12.80;70.11;99348.16;5091500;28;20032;-81
2022/08/29 05:19:11;;;;;;;8.60;4.65;;;;;;;12.25;71.92;99315.38;5082445;28;20084;-80
2022/08/29 05:21:38;;;;;;;9.20;4.22;;;;;;;12.72;70.43;99351.31;5069309;28;20033;-79
2022/08/29 05:24:06;;;;;;;8.25;4.95;;;;;;;12.07;73.81;99350.44;5079157;28;20044;-80
2022/08/29 05:26:35;;;;;;;17.52;5.35;;;;;;;11.51;74.44;99292.59;5085669;28;20032;-80
2022/08/29 05:29:01;;;;;;;14.57;5.10;;;;;;;11.35;76.24;99331.59;5084850;28;20059;-79
2022/08/29 05:31:27;;;;;;;13.93;5.80;;;;;;;11.14;76.51;99353.66;5083993;28;20035;-80
2022/08/29 05:33:52;;;;;;;9.65;5.38;;;;;;;11.22;75.68;99314.03;5085699;28;20029;-80
2022/08/29 05:36:18;;;;;;;13.10;5.60;;;;;;;10.99;75.74;99292.75;5065058;28;20072;-79
2022/08/29 05:38:43;;;;;;;14.20;6.38;;;;;;;11.48;76.06;99354.53;5085184;28;20033;-82
2022/08/29 05:41:09;;;;;;;13.30;5.97;;;;;;;11.08;76.90;99350.09;5070980;28;20052;-79
2022/08/29 05:43:35;;;;;;;11.20;6.68;;;;;;;11.16;76.77;99335.56;5079278;28;20033;-80
2022/08/29 05:46:03;;;;;;;11.85;6.28;;;;;;;11.38;76.21;99344.47;5083778;28;20037;-79
2022/08/29 05:48:30;;;;;;;10.15;4.93;;;;;;;11.40;76.82;99360.28;5057946;28;20083;-79
2022/08/29 05:50:56;;;;;;;18.80;5.93;;;;;;;11.68;74.89;99350.38;5081803;28;20052;-80
2022/08/29 05:53:22;;;;;;;17.00;7.07;;;;;;;11.33;76.49;99366.56;5077545;28;20595;-80
2022/08/29 05:55:47;;;;;;;21.35;7.38;;;;;;;11.79;75.18;99348.69;5078485;28;20041;-80
2022/08/29 05:58:13;;;;;;;6.85;4.38;;;;;;;12.17;74.09;99331.81;5065399;28;20045;-80
2022/08/29 06:00:44;;;;;;;44.83;7.53;;;;;;;12.89;69.86;99325.25;5082267;28;20088;-81
2022/08/29 06:03:10;;;;;;;17.58;7.60;;;;;;;12.63;71.99;99369.69;5076230;28;20036;-80
2022/08/29 06:05:38;;;;;;;15.50;5.85;;;;;;;13.15;70.07;99356.63;5081138;28;20032;-80
2022/08/29 06:08:04;;;;;;;10.85;5.75;;;;;;;13.75;67.66;99340.31;5078109;28;20149;-80
2022/08/29 06:10:30;;;;;;;10.38;5.43;;;;;;;14.71;64.06;99309.47;5075724;28;20036;-80
2022/08/29 06:12:56;;;;;;;14.38;6.32;;;;;;;15.74;61.94;99364.00;5087648;28;20028;-81
2022/08/29 06:15:21;;;;;;;18.48;5.40;;;;;;;16.01;60.77;99367.19;5077588;28;20034;-80
2022/08/29 06:17:48;;;;;;;12.23;5.15;;;;;;;16.16;60.41;99367.19;5061785;28;20052;-80
2022/08/29 06:20:14;;;;;;;14.57;5.65;;;;;;;16.05;60.74;99372.88;5081524;28;20043;-80
2022/08/29 06:22:39;;;;;;;11.55;4.82;;;;;;;16.13;60.81;99377.69;5073762;28;20112;-80
2022/08/29 06:25:07;;;;;;;16.20;6.10;;;;;;;16.19;60.29;99368.53;5083817;28;20049;-80
2022/08/29 06:27:32;;;;;;;12.70;6.00;;;;;;;16.17;60.44;99371.50;5080684;28;20033;-80
2022/08/29 06:29:58;;;;;;;9.15;4.93;;;;;;;16.06;60.63;99342.16;5064243;28;20039;-79
2022/08/29 06:32:23;;;;;;;9.52;4.90;;;;;;;16.27;61.00;99374.16;5049354;28;20029;-80
2022/08/29 06:34:50;;;;;;;9.10;5.80;;;;;;;15.95;62.49;99367.47;5085310;28;20024;-80
2022/08/29 06:37:15;;;;;;;14.20;5.07;;;;;;;15.63;63.67;99384.72;5077296;28;20024;-80
2022/08/29 06:39:41;;;;;;;12.88;4.32;;;;;;;15.68;63.41;99370.47;5044717;28;20029;-80
2022/08/29 06:42:06;;;;;;;9.90;5.18;;;;;;;15.18;65.75;99376.50;5064172;28;20063;-80
2022/08/29 06:44:33;;;;;;;10.35;5.68;;;;;;;14.94;67.02;99381.56;5075880;28;20028;-80
2022/08/29 06:46:58;;;;;;;9.88;5.63;;;;;;;15.78;64.39;99375.84;5078929;28;20032;-80
2022/08/29 06:49:25;;;;;;;11.25;4.88;;;;;;;16.48;62.14;99396.50;5050687;28;20040;-80
2022/08/29 06:51:53;;;;;;;12.20;5.13;;;;;;;16.43;61.57;99383.84;5066399;28;20063;-80
2022/08/29 06:54:22;;;;;;;14.40;6.20;;;;;;;14.84;69.08;99402.22;5063389;28;20043;-80
2022/08/29 06:56:49;;;;;;;9.77;5.70;;;;;;;15.39;67.35;99394.34;5057070;28;20037;-80
2022/08/29 06:59:16;;;;;;;9.27;4.45;;;;;;;15.59;65.92;99398.97;5081021;28;20525;-80
2022/08/29 07:01:43;;;;;;;24.85;6.35;;;;;;;14.86;68.97;99378.56;5085217;28;20036;-81
2022/08/29 07:04:09;;;;;;;16.17;6.32;;;;;;;14.09;71.88;99378.38;5065108;28;20096;-80
2022/08/29 07:06:36;;;;;;;10.68;5.25;;;;;;;15.00;66.10;99323.25;5083522;28;20033;-80
2022/08/29 07:09:02;;;;;;;9.60;4.65;;;;;;;16.09;63.44;99379.31;5085833;28;20045;-80
2022/08/29 07:11:30;;;;;;;19.85;6.22;;;;;;;15.37;67.52;99396.50;5076576;28;20052;-80
2022/08/29 07:13:58;;;;;;;10.68;4.72;;;;;;;16.25;63.73;99400.56;5048345;28;20063;-80
2022/08/29 07:16:23;;;;;;;13.40;6.43;;;;;;;15.46;65.99;99364.50;5084532;28;20056;-80
2022/08/29 07:18:49;;;;;;;21.85;6.22;;;;;;;15.29;68.51;99391.59;5085507;28;20029;-80
2022/08/29 07:21:17;;;;;;;19.20;6.90;;;;;;;15.28;67.88;99392.69;5068162;28;20032;-80
2022/08/29 07:23:43;;;;;;;21.63;6.65;;;;;;;14.59;70.29;99410.94;5077946;28;20107;-80
2022/08/29 07:26:12;;;;;;;17.27;7.65;;;;;;;14.35;70.66;99374.03;5085871;28;20090;-80
2022/08/29 07:28:37;;;;;;;18.65;6.38;;;;;;;14.63;70.12;99374.47;5078482;28;20017;-80
2022/08/29 07:31:04;;;;;;;8.32;4.47;;;;;;;16.11;64.22;99391.44;5049398;28;20041;-80
2022/08/29 07:33:30;;;;;;;13.65;5.75;;;;;;;15.37;67.77;99392.97;5082935;28;20029;-80
2022/08/29 07:35:56;;;;;;;12.07;5.00;;;;;;;15.80;65.62;99371.00;5084707;28;20028;-80
2022/08/29 07:38:22;;;;;;;11.75;5.10;;;;;;;16.77;62.69;99389.44;5079277;28;20017;-80
2022/08/29 07:40:57;;;;;;;12.32;5.68;;;;;;;16.67;62.62;99383.25;5074891;28;20454;-81
2022/08/29 07:43:23;;;;;;;9.30;4.60;;;;;;;17.03;61.74;99387.44;5081705;28;20017;-81
2022/08/29 07:45:48;;;;;;;13.43;5.40;;;;;;;16.00;65.92;99403.28;5077665;28;20067;-80
2022/08/29 07:48:14;;;;;;;9.57;5.47;;;;;;;15.66;66.89;99411.06;5079906;28;20005;-80
2022/08/29 07:50:47;;;;;;;16.52;5.45;;;;;;;15.60;67.41;99412.16;5066229;28;20184;-81
2022/08/29 07:53:13;;;;;;;17.00;5.82;;;;;;;15.19;68.17;99367.38;5091677;28;20040;-80
2022/08/29 07:55:39;;;;;;;12.38;4.97;;;;;;;15.64;68.08;99389.00;5046822;28;20032;-80
2022/08/29 07:58:04;;;;;;;8.25;4.43;;;;;;;16.28;64.25;99375.78;5081616;28;20109;-80
2022/08/29 08:00:30;;;;;;;8.68;4.72;;;;;;;17.21;61.38;99390.31;5080403;28;20050;-81
2022/08/29 08:02:56;;;;;;;9.60;4.80;;;;;;;16.98;62.09;99390.97;5081968;28;20810;-80
2022/08/29 08:05:22;;;;;;;10.38;4.88;;;;;;;17.51;60.63;99377.75;5064755;28;20035;-81
2022/08/29 08:07:48;;;;;;;13.38;4.25;;;;;;;17.66;60.44;99385.75;5058685;28;20063;-81
2022/08/29 08:10:18;;;;;;;11.77;4.78;;;;;;;17.25;62.64;99393.28;5079200;28;20033;-81
2022/08/29 08:12:44;;;;;;;13.57;6.00;;;;;;;15.50;66.42;99347.56;5099528;28;20065;-80
2022/08/29 08:15:10;;;;;;;11.73;5.13;;;;;;;17.26;62.05;99402.97;5088738;28;20048;-81
2022/08/29 08:17:35;;;;;;;5.95;4.07;;;;;;;16.41;63.65;99347.47;5079684;28;20040;-81
2022/08/29 08:20:03;;;;;;;9.40;4.03;;;;;;;17.44;61.76;99401.50;5045883;28;20138;-80
2022/08/29 08:22:29;;;;;;;8.82;3.63;;;;;;;17.41;61.01;99377.78;5051335;28;20024;-81
2022/08/29 08:24:54;;;;;;;5.22;3.42;;;;;;;17.77;60.18;99401.59;5044720;28;20059;-81
2022/08/29 08:27:21;;;;;;;7.72;3.97;;;;;;;17.16;60.09;99322.09;5084586;28;20378;-81
2022/08/29 08:29:46;;;;;;;5.93;3.22;;;;;;;17.60;60.09;99354.47;5053758;28;20032;-81
2022/08/29 08:32:13;;;;;;;9.00;3.63;;;;;;;17.83;60.59;99408.56;5071558;28;20040;-81
2022/08/29 08:34:38;;;;;;;9.07;3.67;;;;;;;17.84;60.16;99410.16;5089348;28;20078;-81
2022/08/29 08:37:12;;;;;;;6.88;3.78;;;;;;;18.04;59.41;99403.81;5085728;28;20036;-81
2022/08/29 08:39:37;;;;;;;8.30;3.95;;;;;;;17.76;59.20;99347.84;5077018;28;20071;-80
2022/08/29 08:42:10;;;;;;;6.53;3.70;;;;;;;18.07;58.34;99351.09;5056419;28;20491;-81
2022/08/29 08:44:56;;;;;;;6.13;3.33;;;;;;;17.95;59.93;99398.19;5082262;28;20029;-81
2022/08/29 08:47:27;;;;;;;11.65;3.85;;;;;;;18.42;57.55;99391.28;5084070;28;20035;-80
2022/08/29 08:50:03;;;;;;;8.65;4.07;;;;;;;18.48;57.99;99393.66;5085088;28;20032;-81
2022/08/29 08:53:06;;;;;;;6.95;3.85;;;;;;;18.36;58.51;99381.63;5085754;28;20036;-81
2022/08/29 08:55:36;;;;;;;7.63;3.45;;;;;;;17.81;60.03;99402.63;5026659;28;20037;-81
2022/08/29 08:58:12;;;;;;;8.77;3.85;;;;;;;17.30;60.72;99387.81;5072448;28;20475;-80
2022/08/29 09:00:51;;;;;;;9.68;3.50;;;;;;;17.89;59.03;99371.50;5082053;28;20082;-80
2022/08/29 09:03:35;;;;;;;10.80;4.13;;;;;;;18.58;57.92;99390.88;5084478;28;20086;-82
2022/08/29 09:06:27;;;;;;;6.95;3.30;;;;;;;18.37;57.60;99380.53;5081155;28;20039;-81
2022/08/29 09:09:06;;;;;;;7.53;3.70;;;;;;;17.90;58.66;99344.22;5085996;28;20058;-81
2022/08/29 09:11:44;;;;;;;7.78;3.08;;;;;;;17.82;58.72;99355.63;5092788;28;20024;-81
2022/08/29 09:14:32;;;;;;;7.38;3.63;;;;;;;18.20;59.05;99385.53;5083721;28;20027;-81
2022/08/29 09:16:59;;;;;;;5.85;3.28;;;;;;;18.92;57.39;99379.91;5082511;28;20044;-81
2022/08/29 09:19:25;;;;;;;7.57;3.95;;;;;;;18.77;56.67;99304.38;5083622;28;20036;-81
2022/08/29 09:21:54;;;;;;;11.05;3.95;;;;;;;19.01;55.70;99312.44;5064529;28;20036;-81
2022/08/29 09:24:31;;;;;;;8.48;3.80;;;;;;;19.32;56.00;99382.09;5077107;28;20024;-81
2022/08/29 09:26:58;;;;;;;6.03;3.50;;;;;;;19.36;56.10;99393.16;5082598;28;20108;-80
2022/08/29 09:29:29;;;;;;;9.82;4.28;;;;;;;18.89;56.20;99369.69;5084013;28;20054;-81
2022/08/29 09:32:10;;;;;;;9.63;3.05;;;;;;;19.23;56.13;99383.84;5091097;28;20039;-81
2022/08/29 09:34:39;;;;;;;12.15;4.10;;;;;;;18.52;57.62;99364.19;5069435;28;20040;-81
2022/08/29 09:37:35;;;;;;;7.15;3.55;;;;;;;19.13;56.58;99356.91;5078131;28;20093;-81
2022/08/29 09:40:00;;;;;;;7.50;3.58;;;;;;;19.80;55.03;99366.50;5084177;28;20044;-81
2022/08/29 09:42:35;;;;;;;8.10;3.60;;;;;;;19.71;54.97;99362.84;5076966;28;20050;-81
2022/08/29 09:45:07;;;;;;;13.32;3.92;;;;;;;19.42;56.02;99378.47;5060858;28;20094;-81
2022/08/29 09:47:33;;;;;;;8.77;3.33;;;;;;;19.16;56.14;99318.44;5080730;28;20016;-81
2022/08/29 09:50:12;;;;;;;9.48;3.38;;;;;;;18.58;57.68;99371.13;5062961;28;20086;-80
2022/08/29 09:52:49;;;;;;;8.43;3.60;;;;;;;18.95;57.27;99357.72;5080663;28;20519;-81
2022/08/29 09:55:19;;;;;;;8.77;3.28;;;;;;;19.27;56.58;99355.09;5080056;28;20028;-81
2022/08/29 09:57:50;;;;;;;5.53;2.95;;;;;;;19.17;56.55;99367.97;5079057;28;20035;-81
2022/08/29 10:00:23;;;;;;;6.32;3.60;;;;;;;18.10;57.88;99354.03;5068546;28;20031;-81
2022/08/29 10:02:54;;;;;;;7.15;3.50;;;;;;;18.58;57.58;99349.50;5069212;28;20025;-81
2022/08/29 10:05:27;;;;;;;7.60;3.17;;;;;;;18.04;58.30;99381.38;5057747;28;20029;-81
2022/08/29 10:07:53;;;;;;;4.50;2.95;;;;;;;19.22;57.12;99355.16;5091101;28;20149;-81
2022/08/29 10:10:24;;;;;;;7.55;3.30;;;;;;;19.20;56.45;99337.59;5082134;28;20024;-81
2022/08/29 10:13:06;;;;;;;10.75;3.65;;;;;;;19.88;55.44;99373.13;5058140;28;20044;-81
2022/08/29 10:15:47;;;;;;;7.40;3.40;;;;;;;20.18;54.81;99369.94;5076852;28;20062;-81
2022/08/29 10:18:26;;;;;;;8.23;3.58;;;;;;;20.39;54.70;99384.75;5071696;28;20040;-82
2022/08/29 10:21:19;;;;;;;6.80;3.05;;;;;;;19.82;54.89;99374.31;5071636;28;20484;-82
2022/08/29 10:23:51;;;;;;;12.73;4.03;;;;;;;19.28;55.54;99374.84;5075762;28;20166;-81
2022/08/29 10:26:38;;;;;;;7.15;3.97;;;;;;;19.06;56.26;99367.31;5076212;28;20040;-81
2022/08/29 10:29:25;;;;;;;8.63;3.80;;;;;;;19.67;55.42;99371.88;5083242;28;20028;-81
2022/08/29 10:32:08;;;;;;;8.80;3.45;;;;;;;19.83;55.85;99375.94;5083110;28;20036;-81
2022/08/29 10:34:54;;;;;;;8.13;2.92;;;;;;;20.67;53.64;99364.69;5090036;28;20030;-82
2022/08/29 10:38:07;;;;;;;6.95;3.97;;;;;;;20.42;54.21;99362.44;5075434;28;20028;-82
2022/08/29 10:40:44;;;;;;;7.03;3.35;;;;;;;19.61;55.52;99362.22;5026790;28;20031;-81
2022/08/29 10:43:28;;;;;;;9.73;3.80;;;;;;;20.42;54.53;99356.22;5059885;28;20485;-82
2022/08/29 10:46:00;;;;;;;10.85;3.00;;;;;;;21.07;52.90;99349.50;5077752;28;20096;-81
2022/08/29 10:48:36;;;;;;;12.27;3.33;;;;;;;20.40;54.12;99331.31;5079804;28;20017;-82
2022/08/29 10:51:30;;;;;;;5.93;3.25;;;;;;;20.33;54.56;99361.56;5072719;28;20033;-82
2022/08/29 10:54:26;;;;;;;6.30;3.20;;;;;;;20.50;54.26;99363.66;5077854;28;20036;-82
2022/08/29 10:56:53;;;;;;;11.88;3.75;;;;;;;20.19;54.90;99357.97;5078833;28;20024;-82
2022/08/29 10:59:27;;;;;;;12.45;4.13;;;;;;;19.94;55.48;99361.13;5076723;28;20392;-81
2022/08/29 11:02:07;;;;;;;6.80;3.35;;;;;;;20.00;55.40;99371.59;5077825;28;20407;-82
2022/08/29 11:04:49;;;;;;;4.35;3.25;;;;;;;20.24;55.67;99357.91;5083280;28;20425;-81
2022/08/29 11:07:24;;;;;;;6.60;2.88;;;;;;;21.04;53.14;99369.09;5070322;28;20020;-82
2022/08/29 11:09:54;;;;;;;8.15;2.95;;;;;;;20.55;54.68;99371.72;5080776;28;20120;-81
2022/08/29 11:12:35;;;;;;;6.97;3.50;;;;;;;21.40;53.19;99356.38;5067340;28;20674;-82
2022/08/29 11:15:36;;;;;;;5.93;3.67;;;;;;;21.20;53.32;99361.44;5083658;28;20020;-81
2022/08/29 11:18:23;;;;;;;6.13;3.05;;;;;;;20.78;54.34;99371.50;5094383;28;20397;-81
2022/08/29 11:20:55;;;;;;;7.13;3.10;;;;;;;20.87;54.64;99352.59;5077496;28;20037;-81
2022/08/29 11:23:39;;;;;;;8.27;3.17;;;;;;;20.24;54.68;99351.69;5081444;28;20031;-81
2022/08/29 11:26:17;;;;;;;8.85;3.53;;;;;;;21.05;54.57;99356.34;5077338;28;20031;-82
2022/08/29 11:28:59;;;;;;;7.43;3.67;;;;;;;21.31;53.35;99365.53;5076836;28;20023;-82
2022/08/29 11:31:56;;;;;;;5.68;3.22;;;;;;;21.85;53.05;99362.63;5074667;28;20495;-81
2022/08/29 11:34:38;;;;;;;6.88;3.42;;;;;;;20.97;53.65;99352.38;5078777;28;20476;-81
2022/08/29 11:37:25;;;;;;;10.63;3.58;;;;;;;20.70;54.60;99363.28;5085084;28;20084;-81
2022/08/29 11:39:57;;;;;;;5.10;2.88;;;;;;;22.10;52.34;99359.31;5078377;28;20036;-81
2022/08/29 11:42:29;;;;;;;5.55;2.97;;;;;;;22.49;51.24;99349.56;5082587;28;20062;-82
2022/08/29 11:44:57;;;;;;;5.95;3.90;;;;;;;21.45;52.68;99363.56;5083578;28;20568;-81
2022/08/29 11:47:33;;;;;;;4.72;2.90;;;;;;;21.94;51.94;99352.63;5090639;28;20025;-81